Time;durP1;ratioP1;P1;durP2;ratioP2;P2;SDS_P1;SDS_P2;PMS_P1;PMS_P2;Temp;Humidity;BMP_temperature;BMP_pressure;BME280_temperature;BME280_humidity;BME280_pressure;Samples;Min_cycle;Max_cycle;Signal;HPM_P1;HPM_P2
2022/06/04 00:00:22;;;;;;;17.88;4.32;;;;;;;20.84;47.08;102223.66;5071526;28;20028;-74
2022/06/04 00:02:49;;;;;;;9.93;3.70;;;;;;;20.81;46.92;102235.47;5072083;28;20127;-75
2022/06/04 00:05:18;;;;;;;8.88;3.28;;;;;;;20.73;46.85;102230.84;5072046;28;20382;-75
2022/06/04 00:07:44;;;;;;;14.60;3.77;;;;;;;20.86;46.38;102229.69;5072060;28;20497;-75
2022/06/04 00:15:44;;;;;;;10.02;3.90;;;;;;;21.00;45.51;102238.47;5072011;28;20044;-74
2022/06/04 00:18:11;;;;;;;11.02;4.30;;;;;;;20.78;46.25;102230.59;5071971;28;20443;-74
2022/06/04 00:20:37;;;;;;;14.02;4.93;;;;;;;20.71;46.41;102225.66;5071651;28;20028;-77
2022/06/04 00:23:05;;;;;;;13.50;4.70;;;;;;;20.53;46.67;102232.56;5071854;28;20535;-75
2022/06/04 00:25:33;;;;;;;19.02;5.97;;;;;;;20.60;46.80;102241.13;5071901;28;20184;-75
2022/06/04 00:28:00;;;;;;;9.18;4.45;;;;;;;20.60;46.68;102229.22;5071847;28;20038;-75
2022/06/04 00:30:26;;;;;;;9.60;4.07;;;;;;;20.58;46.54;102232.34;5071638;28;20082;-75
2022/06/04 00:32:52;;;;;;;7.70;4.47;;;;;;;20.49;46.57;102228.84;5071875;28;20376;-75
2022/06/04 00:35:18;;;;;;;14.93;4.88;;;;;;;20.44;46.97;102238.22;5071704;28;20016;-75
2022/06/04 00:37:45;;;;;;;13.65;4.20;;;;;;;20.39;47.04;102235.59;5071725;28;20039;-75
2022/06/04 00:40:23;;;;;;;13.10;4.22;;;;;;;20.36;47.03;102225.19;5071360;28;20147;-75
2022/06/04 00:42:49;;;;;;;11.05;4.15;;;;;;;20.47;46.70;102225.59;5071674;28;20021;-75
2022/06/04 00:45:23;;;;;;;10.75;5.35;;;;;;;20.46;46.80;102224.78;5071676;28;20025;-75
2022/06/04 00:47:49;;;;;;;12.80;4.00;;;;;;;20.52;46.54;102222.59;5071593;28;20032;-74
2022/06/04 00:50:17;;;;;;;15.52;4.63;;;;;;;20.48;46.76;102225.28;5071396;28;20036;-75
2022/06/04 00:52:46;;;;;;;16.60;4.90;;;;;;;20.40;46.98;102220.59;5070277;28;20525;-75
2022/06/04 00:55:13;;;;;;;9.20;4.10;;;;;;;20.43;46.81;102222.69;5071475;28;20024;-74
2022/06/04 00:57:48;;;;;;;14.57;4.07;;;;;;;20.33;47.17;102219.50;5071414;28;20544;-76
2022/06/04 01:00:22;;;;;;;23.50;5.68;;;;;;;20.59;46.23;102222.84;5070784;28;20028;-75
2022/06/04 01:03:02;;;;;;;15.23;5.40;;;;;;;20.37;46.96;102228.78;5051446;28;20028;-75
2022/06/04 01:06:03;;;;;;;14.30;5.50;;;;;;;20.18;47.21;102223.78;5051411;28;20032;-75
2022/06/04 01:08:36;;;;;;;10.93;3.88;;;;;;;20.15;47.48;102225.25;5051309;28;20059;-74
2022/06/04 01:11:13;;;;;;;14.70;3.97;;;;;;;20.52;46.55;102230.94;5051349;28;20029;-74
2022/06/04 01:14:08;;;;;;;19.35;5.40;;;;;;;20.52;46.33;102222.59;5054872;28;20025;-74
2022/06/04 01:16:47;;;;;;;15.13;5.97;;;;;;;20.49;46.53;102226.88;5053021;28;20044;-75
2022/06/04 01:19:30;;;;;;;15.20;5.63;;;;;;;20.63;46.27;102231.28;5054044;28;20021;-78
2022/06/04 01:22:30;;;;;;;10.23;4.82;;;;;;;20.67;46.32;102224.69;5072055;28;20043;-75
2022/06/04 01:25:27;;;;;;;12.57;5.78;;;;;;;20.58;46.26;102225.97;5071800;28;20071;-77
2022/06/04 01:28:06;;;;;;;12.52;4.90;;;;;;;20.54;46.63;102236.13;5075238;28;20039;-74
2022/06/04 01:30:42;;;;;;;17.67;5.03;;;;;;;20.43;46.92;102239.34;5075199;28;20033;-75
2022/06/04 01:33:20;;;;;;;14.07;5.63;;;;;;;20.70;46.08;102237.06;5075114;28;20032;-74
2022/06/04 01:36:02;;;;;;;15.60;5.68;;;;;;;20.42;47.08;102239.69;5075119;28;20028;-75
2022/06/04 01:38:40;;;;;;;15.10;5.85;;;;;;;20.52;46.63;102238.44;5074834;28;20074;-75
2022/06/04 01:41:22;;;;;;;15.98;5.93;;;;;;;20.66;46.20;102245.31;5074872;28;20028;-75
2022/06/04 01:43:58;;;;;;;11.15;5.28;;;;;;;20.44;46.72;102240.16;5074841;28;20025;-75
2022/06/04 01:46:33;;;;;;;15.48;5.57;;;;;;;20.74;45.99;102241.59;5073451;28;20051;-75
2022/06/04 01:49:08;;;;;;;11.10;4.72;;;;;;;20.31;47.06;102242.06;5074762;28;20109;-74
2022/06/04 01:51:34;;;;;;;11.63;4.93;;;;;;;20.41;46.85;102241.66;5074455;28;20032;-75
2022/06/04 01:54:08;;;;;;;21.25;6.63;;;;;;;20.46;46.65;102238.66;5074636;28;20483;-75
2022/06/04 01:56:43;;;;;;;9.73;5.55;;;;;;;19.65;48.81;102242.06;5074604;28;20454;-74
2022/06/04 01:59:18;;;;;;;16.65;6.57;;;;;;;20.26;47.16;102236.75;5074626;28;20024;-74
2022/06/04 02:01:46;;;;;;;11.32;5.10;;;;;;;20.09;47.62;102234.13;5073185;28;20032;-74
2022/06/04 02:04:20;;;;;;;17.10;6.05;;;;;;;19.97;48.16;102240.47;5074489;28;20025;-74
2022/06/04 02:09:48;;;;;;;9.57;5.40;;;;;;;19.95;48.01;102238.03;5074326;28;20127;-74
2022/06/04 02:12:14;;;;;;;12.35;6.65;;;;;;;20.32;46.97;102245.66;5074298;28;20025;-74
2022/06/04 02:14:43;;;;;;;19.10;7.05;;;;;;;20.11;47.57;102248.50;5074277;28;20063;-75
2022/06/04 02:17:13;;;;;;;18.50;6.63;;;;;;;20.18;47.32;102245.97;5074010;28;20082;-75
2022/06/04 02:19:40;;;;;;;13.68;6.10;;;;;;;20.20;47.21;102249.22;5073940;28;20382;-77
2022/06/04 02:22:08;;;;;;;18.42;6.18;;;;;;;20.08;47.56;102244.44;5074082;28;20031;-75
2022/06/04 02:24:33;;;;;;;17.15;7.32;;;;;;;20.04;47.78;102251.00;5073235;28;20020;-77
2022/06/04 02:27:01;;;;;;;10.18;5.80;;;;;;;19.91;47.98;102250.97;5074062;28;20028;-74
2022/06/04 02:29:27;;;;;;;18.10;7.10;;;;;;;20.09;47.64;102256.34;5073821;28;20051;-74
2022/06/04 02:32:03;;;;;;;15.60;6.57;;;;;;;20.12;47.34;102258.44;5074016;28;20016;-74
2022/06/04 02:34:44;;;;;;;18.58;5.85;;;;;;;20.04;47.63;102262.94;5074044;28;20523;-74
2022/06/04 02:37:27;;;;;;;14.18;6.72;;;;;;;19.81;48.26;102265.25;5074060;28;20425;-75
2022/06/04 02:39:53;;;;;;;13.05;5.50;;;;;;;20.05;47.55;102269.28;5073571;28;20075;-75
2022/06/04 02:42:46;;;;;;;14.95;6.22;;;;;;;19.90;47.85;102274.31;5073788;28;20050;-74
2022/06/04 02:45:20;;;;;;;13.73;5.63;;;;;;;19.93;47.87;102278.34;5073888;28;20031;-75
2022/06/04 02:47:59;;;;;;;19.52;7.20;;;;;;;19.98;47.60;102275.38;5070597;28;20024;-74
2022/06/04 02:50:32;;;;;;;14.82;6.00;;;;;;;20.03;47.50;102283.50;5070298;28;20218;-74
2022/06/04 02:53:01;;;;;;;16.52;7.10;;;;;;;19.81;48.11;102276.34;5071996;28;20028;-77
2022/06/04 02:55:33;;;;;;;29.83;7.68;;;;;;;19.98;47.84;102275.38;5073227;28;20110;-76
2022/06/04 02:58:02;;;;;;;15.80;6.43;;;;;;;20.13;47.31;102271.97;5073265;28;20039;-75
2022/06/04 03:00:29;;;;;;;14.88;6.38;;;;;;;19.97;47.65;102284.03;5072932;28;20029;-79
2022/06/04 03:02:55;;;;;;;16.85;6.78;;;;;;;20.14;47.45;102281.09;5072925;28;20032;-75
2022/06/04 03:05:26;;;;;;;14.77;6.18;;;;;;;20.24;47.17;102275.94;5071626;28;20379;-74
2022/06/04 03:07:57;;;;;;;13.90;6.82;;;;;;;20.31;47.08;102278.16;5072099;28;20120;-74
2022/06/04 03:10:26;;;;;;;14.43;7.13;;;;;;;20.25;47.24;102279.50;5072041;28;20391;-74
2022/06/04 03:12:52;;;;;;;16.73;6.85;;;;;;;20.02;47.88;102281.03;5073032;28;20542;-74
2022/06/04 03:15:19;;;;;;;11.32;6.97;;;;;;;20.15;47.40;102274.41;5073134;28;20034;-74
2022/06/04 03:17:46;;;;;;;15.45;6.57;;;;;;;20.04;47.69;102274.03;5073114;28;20422;-74
2022/06/04 03:20:14;;;;;;;9.18;6.15;;;;;;;20.02;47.70;102267.97;5072713;28;20037;-74
2022/06/04 03:22:40;;;;;;;18.40;6.50;;;;;;;19.97;47.80;102265.44;5073041;28;20099;-75
2022/06/04 03:25:06;;;;;;;19.23;7.25;;;;;;;19.81;48.41;102265.25;5073006;28;20510;-75
2022/06/04 03:27:32;;;;;;;14.90;7.43;;;;;;;20.00;47.78;102261.16;5072936;28;20104;-74
2022/06/04 03:29:57;;;;;;;13.90;5.53;;;;;;;19.74;48.53;102273.31;5071521;28;20025;-74
2022/06/04 03:32:23;;;;;;;16.52;6.40;;;;;;;19.74;48.44;102264.16;5072820;28;20107;-74
2022/06/04 03:34:49;;;;;;;14.82;6.68;;;;;;;19.60;48.77;102268.00;5072769;28;20060;-75
2022/06/04 03:37:15;;;;;;;14.95;6.93;;;;;;;19.72;48.36;102264.47;5072610;28;20097;-75
2022/06/04 03:39:41;;;;;;;13.50;6.90;;;;;;;19.92;47.82;102260.91;5072474;28;20503;-75
2022/06/04 03:42:07;;;;;;;14.55;6.38;;;;;;;19.66;48.61;102265.84;5072690;28;20024;-74
2022/06/04 03:44:33;;;;;;;15.38;6.03;;;;;;;19.74;48.35;102272.50;5072572;28;20445;-74
2022/06/04 03:46:59;;;;;;;11.90;6.65;;;;;;;19.95;47.62;102270.53;5072303;28;20071;-74
2022/06/04 03:49:25;;;;;;;14.65;6.65;;;;;;;19.93;47.71;102276.38;5072214;28;20060;-74
2022/06/04 03:51:51;;;;;;;13.63;6.38;;;;;;;19.76;48.19;102273.75;5072111;28;20056;-74
2022/06/04 03:54:17;;;;;;;16.95;6.22;;;;;;;19.82;47.95;102280.75;5072447;28;20514;-74
2022/06/04 03:57:37;;;;;;;15.98;6.75;;;;;;;19.86;47.78;102278.88;5072185;28;20031;-74
2022/06/04 03:59:29;;;;;;;16.13;6.63;;;;;;;19.82;47.94;102277.97;5071940;28;20038;-75
2022/06/04 04:01:54;;;;;;;11.55;6.28;;;;;;;19.77;48.18;102280.94;5072100;28;20115;-74
2022/06/04 04:04:20;;;;;;;14.77;6.38;;;;;;;19.83;47.89;102287.09;5072106;28;20037;-74
2022/06/04 04:06:45;;;;;;;20.27;6.72;;;;;;;19.89;47.57;102283.78;5072064;28;20058;-74
2022/06/04 04:09:11;;;;;;;19.52;6.75;;;;;;;19.98;47.33;102286.47;5071991;28;20024;-74
2022/06/04 04:11:37;;;;;;;14.77;6.95;;;;;;;19.94;47.35;102291.06;5071685;28;20052;-74
2022/06/04 04:14:03;;;;;;;16.58;5.70;;;;;;;19.88;47.45;102289.66;5072021;28;20035;-74
2022/06/04 04:16:29;;;;;;;14.50;7.00;;;;;;;19.82;47.55;102288.25;5072026;28;20079;-75
2022/06/04 04:18:55;;;;;;;11.98;6.65;;;;;;;19.77;47.73;102289.25;5071782;28;20064;-74
2022/06/04 04:21:22;;;;;;;20.80;6.95;;;;;;;19.84;47.66;102300.63;5071859;28;20042;-74
2022/06/04 04:23:48;;;;;;;20.73;7.65;;;;;;;19.68;47.99;102305.16;5071929;28;20437;-74
2022/06/04 04:26:16;;;;;;;15.98;5.97;;;;;;;19.63;47.67;102306.16;5071765;28;20078;-76
2022/06/04 04:28:42;;;;;;;14.48;5.95;;;;;;;19.78;47.72;102306.69;5071663;28;20052;-74
2022/06/04 04:31:18;;;;;;;13.52;5.90;;;;;;;19.48;47.89;102314.22;5071838;28;20028;-74
2022/06/04 04:33:44;;;;;;;12.93;5.22;;;;;;;19.65;47.57;102308.59;5071806;28;20048;-74
2022/06/04 04:36:10;;;;;;;14.45;5.82;;;;;;;19.63;47.60;102317.25;5071680;28;20100;-74
2022/06/04 04:38:36;;;;;;;13.40;6.40;;;;;;;19.73;47.47;102320.78;5071446;28;20020;-74
2022/06/04 04:41:02;;;;;;;14.60;6.30;;;;;;;19.57;47.76;102329.69;5071669;28;20032;-74
2022/06/04 04:43:28;;;;;;;13.65;5.45;;;;;;;19.57;47.73;102326.09;5071696;28;20049;-74
2022/06/04 04:46:20;;;;;;;10.40;5.35;;;;;;;19.72;47.37;102313.59;5071478;28;20061;-74
2022/06/04 04:48:47;;;;;;;15.93;5.80;;;;;;;19.75;47.26;102324.84;5050285;28;20067;-74
2022/06/04 04:51:16;;;;;;;14.65;6.22;;;;;;;19.65;47.64;102322.47;5051526;28;20025;-74
2022/06/04 04:53:43;;;;;;;13.15;6.47;;;;;;;19.77;47.50;102328.06;5051498;28;20108;-74
2022/06/04 04:56:09;;;;;;;13.02;5.22;;;;;;;19.78;47.31;102321.38;5051398;28;20028;-74
2022/06/04 04:58:36;;;;;;;15.65;7.32;;;;;;;19.98;47.04;102324.50;5050402;28;20098;-74
2022/06/04 05:01:01;;;;;;;8.65;5.43;;;;;;;19.65;47.80;102339.09;5051331;28;20468;-74
2022/06/04 05:03:27;;;;;;;17.52;6.18;;;;;;;19.81;47.43;102328.22;5050206;28;20090;-74
2022/06/04 05:06:03;;;;;;;15.07;5.22;;;;;;;20.22;46.30;102328.19;5051371;28;20085;-75
2022/06/04 05:08:30;;;;;;;15.02;7.22;;;;;;;20.17;46.56;102328.41;5051379;28;20021;-74
2022/06/04 05:10:55;;;;;;;15.25;6.80;;;;;;;20.09;46.93;102331.25;5057279;28;20029;-74
2022/06/04 05:13:21;;;;;;;12.60;5.15;;;;;;;20.25;46.57;102335.03;5071402;28;20089;-74
2022/06/04 05:15:47;;;;;;;19.17;6.28;;;;;;;20.36;46.30;102330.69;5071375;28;20036;-73
2022/06/04 05:18:12;;;;;;;20.73;6.43;;;;;;;20.40;46.19;102337.19;5069575;28;20028;-74
2022/06/04 05:20:41;;;;;;;10.63;5.28;;;;;;;20.49;45.62;102335.16;5071281;28;20064;-74
2022/06/04 05:23:07;;;;;;;12.40;5.53;;;;;;;20.48;45.64;102330.78;5071329;28;20424;-73
2022/06/04 05:25:32;;;;;;;17.85;5.68;;;;;;;20.53;45.44;102326.94;5071302;28;20029;-77
2022/06/04 05:27:58;;;;;;;14.52;5.20;;;;;;;20.63;45.41;102334.03;5071257;28;20028;-74
2022/06/04 05:30:24;;;;;;;13.38;6.45;;;;;;;20.64;45.69;102336.50;5071071;28;20506;-74
2022/06/04 05:32:49;;;;;;;18.65;6.80;;;;;;;20.77;45.40;102345.66;5069937;28;20627;-74
2022/06/04 05:35:15;;;;;;;13.52;4.85;;;;;;;20.78;45.32;102341.72;5071102;28;20020;-73
2022/06/04 05:37:41;;;;;;;10.00;4.75;;;;;;;20.84;45.04;102342.31;5071301;28;20059;-73
2022/06/04 05:40:07;;;;;;;10.25;5.32;;;;;;;20.89;44.84;102339.31;5070543;28;20041;-73
2022/06/04 05:42:34;;;;;;;13.85;5.90;;;;;;;20.82;45.12;102345.44;5070917;28;20386;-77
2022/06/04 05:45:00;;;;;;;10.05;4.95;;;;;;;20.97;44.63;102355.06;5067616;28;20033;-74
2022/06/04 05:47:26;;;;;;;16.73;5.57;;;;;;;20.95;44.70;102360.97;5069040;28;20069;-74
2022/06/04 05:49:51;;;;;;;13.00;5.38;;;;;;;21.17;44.07;102354.19;5069040;28;20040;-74
2022/06/04 05:52:17;;;;;;;10.02;5.57;;;;;;;20.99;44.33;102361.91;5070608;28;20463;-74
2022/06/04 05:54:43;;;;;;;13.63;5.55;;;;;;;21.02;44.57;102358.44;5070524;28;20028;-73
2022/06/04 05:57:08;;;;;;;13.30;5.63;;;;;;;20.84;44.98;102370.91;5070448;28;20094;-73
2022/06/04 05:59:34;;;;;;;14.10;5.45;;;;;;;20.89;44.84;102367.91;5070849;28;20020;-78
2022/06/04 06:02:00;;;;;;;13.20;5.25;;;;;;;21.59;43.04;102374.22;5074316;28;20430;-74
2022/06/04 06:04:26;;;;;;;13.38;5.25;;;;;;;21.53;43.08;102383.97;5075094;28;20029;-76
2022/06/04 06:06:52;;;;;;;10.73;4.72;;;;;;;21.82;42.65;102371.78;5074716;28;20093;-74
2022/06/04 06:09:20;;;;;;;13.55;6.40;;;;;;;22.03;42.26;102377.19;5073888;28;20031;-76
2022/06/04 06:11:48;;;;;;;10.75;6.03;;;;;;;21.97;42.71;102367.44;5074089;28;20029;-76
2022/06/04 06:14:14;;;;;;;10.90;5.22;;;;;;;21.83;43.05;102372.56;5072040;28;20016;-74
2022/06/04 06:16:45;;;;;;;15.82;5.22;;;;;;;21.81;42.75;102377.69;5074058;28;20044;-75
2022/06/04 06:19:12;;;;;;;11.00;4.65;;;;;;;21.66;43.05;102372.84;5075104;28;20036;-77
2022/06/04 06:21:38;;;;;;;11.52;5.00;;;;;;;21.62;43.29;102363.59;5073276;28;20394;-74
2022/06/04 06:24:06;;;;;;;13.32;5.90;;;;;;;21.55;43.37;102364.97;5074989;28;20029;-74
2022/06/04 06:26:33;;;;;;;10.95;5.65;;;;;;;21.79;43.14;102368.91;5074911;28;20104;-75
2022/06/04 06:29:01;;;;;;;12.32;4.40;;;;;;;21.96;42.83;102368.63;5074977;28;20477;-75
2022/06/04 06:31:28;;;;;;;19.25;5.60;;;;;;;22.01;42.51;102376.72;5074903;28;20024;-75
2022/06/04 06:33:54;;;;;;;12.65;5.25;;;;;;;21.96;42.80;102373.38;5074452;28;20024;-74
2022/06/04 06:36:21;;;;;;;12.02;4.45;;;;;;;21.99;42.49;102373.50;5074738;28;20494;-74
2022/06/04 06:38:47;;;;;;;9.95;5.00;;;;;;;22.11;42.55;102376.25;5074568;28;20059;-78
2022/06/04 06:41:15;;;;;;;9.80;5.57;;;;;;;22.30;41.71;102372.03;5074591;28;20028;-76
2022/06/04 06:43:46;;;;;;;10.05;4.63;;;;;;;22.38;41.51;102365.50;5074284;28;20032;-78
2022/06/04 06:46:33;;;;;;;18.27;4.38;;;;;;;22.41;41.07;102368.38;5074524;28;20024;-79
2022/06/04 06:49:13;;;;;;;10.65;4.60;;;;;;;22.38;40.66;102379.44;5073250;28;20033;-73
2022/06/04 06:51:45;;;;;;;;;;;;;;;22.49;40.54;102376.94;5073361;28;20127;-74
2022/06/04 06:54:11;;;;;;;12.77;4.30;;;;;;;22.42;40.60;102380.34;5073087;28;19912;-75
2022/06/04 06:56:41;;;;;;;8.90;4.70;;;;;;;22.26;40.91;102383.06;5074237;28;20611;-74
2022/06/04 06:59:07;;;;;;;10.18;4.95;;;;;;;22.38;40.63;102374.69;5074319;28;20496;-78
2022/06/04 07:01:34;;;;;;;14.32;4.88;;;;;;;22.50;40.86;102368.22;5074041;28;20029;-79
2022/06/04 07:04:01;;;;;;;8.60;4.97;;;;;;;22.39;41.08;102372.69;5074174;28;20031;-75
2022/06/04 07:06:45;;;;;;;15.82;5.13;;;;;;;22.73;40.44;102373.22;5074136;28;20020;-74
2022/06/04 07:09:20;;;;;;;9.15;4.72;;;;;;;22.74;40.14;102374.84;5074108;28;20017;-74
2022/06/04 07:11:46;;;;;;;10.98;4.60;;;;;;;22.53;40.76;102375.88;5072222;28;20028;-79
2022/06/04 07:14:12;;;;;;;10.95;4.45;;;;;;;22.41;40.66;102378.72;5073879;28;20062;-78
2022/06/04 07:16:38;;;;;;;8.73;3.63;;;;;;;22.20;40.82;102373.34;5072589;28;20048;-79
2022/06/04 07:19:04;;;;;;;10.57;3.65;;;;;;;22.05;40.59;102376.81;5071587;28;20048;-74
2022/06/04 07:21:30;;;;;;;10.38;5.35;;;;;;;22.20;40.58;102375.31;5072430;28;20487;-76
2022/06/04 07:23:56;;;;;;;7.97;4.55;;;;;;;21.88;41.07;102373.16;5073727;28;20025;-76
2022/06/04 07:26:22;;;;;;;7.35;3.88;;;;;;;21.99;40.57;102373.50;5073542;28;20056;-74
2022/06/04 07:28:49;;;;;;;7.30;3.85;;;;;;;22.17;40.67;102379.63;5065352;28;20716;-74
2022/06/04 07:31:15;;;;;;;13.73;4.57;;;;;;;22.27;40.86;102373.53;5058016;28;20111;-74
2022/06/04 07:33:46;;;;;;;11.77;4.78;;;;;;;22.33;40.45;102383.28;5073124;28;20056;-74
2022/06/04 07:36:22;;;;;;;9.95;3.47;;;;;;;22.34;40.32;102378.50;5073430;28;20024;-75
2022/06/04 07:38:47;;;;;;;10.32;5.13;;;;;;;22.36;40.43;102384.53;5073222;28;20049;-75
2022/06/04 07:41:26;;;;;;;12.75;4.20;;;;;;;22.38;40.17;102379.44;5073244;28;20036;-75
2022/06/04 07:43:52;;;;;;;10.93;3.63;;;;;;;22.52;40.30;102371.47;5074428;28;20028;-89
2022/06/04 07:46:19;;;;;;;9.43;3.60;;;;;;;22.30;40.51;102370.06;5073551;28;20145;-88
2022/06/04 07:48:46;;;;;;;12.55;5.05;;;;;;;22.25;40.84;102369.50;5072027;28;20035;-89
2022/06/04 07:51:12;;;;;;;7.95;3.95;;;;;;;22.28;40.17;102364.03;5073304;28;20170;-90
2022/06/04 07:53:38;;;;;;;12.80;4.30;;;;;;;22.06;40.48;102362.56;5074368;28;20169;-87
2022/06/04 07:56:10;;;;;;;14.00;4.72;;;;;;;22.24;40.34;102363.13;5072767;28;20162;-86
2022/06/04 07:58:36;;;;;;;13.43;4.78;;;;;;;22.37;40.17;102353.56;5072541;28;20048;-86
2022/06/04 08:01:03;;;;;;;15.77;4.85;;;;;;;22.31;40.37;102359.75;5073166;28;20028;-89
2022/06/04 08:03:34;;;;;;;10.98;4.35;;;;;;;22.25;40.36;102361.97;5073691;28;20471;-87
2022/06/04 08:06:01;;;;;;;8.65;4.45;;;;;;;22.22;40.59;102373.81;5072104;28;20024;-84
2022/06/04 08:08:27;;;;;;;11.40;5.28;;;;;;;22.41;40.28;102370.34;5072063;28;20031;-87
2022/06/04 08:10:53;;;;;;;12.82;5.13;;;;;;;22.24;40.76;102382.63;5071480;28;20525;-84
2022/06/04 08:13:30;;;;;;;9.35;3.83;;;;;;;22.46;40.17;102370.13;5070829;28;20016;-86
2022/06/04 08:15:58;;;;;;;11.00;3.90;;;;;;;22.69;40.08;102378.72;5071914;28;20482;-79
2022/06/04 08:18:24;;;;;;;19.77;5.30;;;;;;;22.58;39.75;102386.75;5069188;28;20024;-77
2022/06/04 08:20:50;;;;;;;10.65;3.97;;;;;;;22.61;39.65;102388.03;5068664;28;20040;-85
2022/06/04 08:23:15;;;;;;;10.77;4.80;;;;;;;22.41;39.70;102382.31;5069306;28;20033;-83
2022/06/04 08:25:45;;;;;;;12.77;4.80;;;;;;;22.53;39.92;102377.88;5070781;28;20032;-86
2022/06/04 08:28:10;;;;;;;8.45;4.43;;;;;;;22.74;39.55;102391.56;5070280;28;20038;-87
2022/06/04 08:30:37;;;;;;;9.80;4.85;;;;;;;22.63;39.13;102380.94;5069764;28;20037;-79
2022/06/04 08:33:03;;;;;;;8.30;3.75;;;;;;;22.60;38.92;102384.44;5068536;28;20115;-81
2022/06/04 08:35:29;;;;;;;10.68;4.80;;;;;;;22.53;39.21;102386.22;5067851;28;20800;-79
2022/06/04 08:37:54;;;;;;;14.07;4.57;;;;;;;22.60;39.29;102384.44;5067667;28;20032;-80
2022/06/04 08:40:31;;;;;;;11.00;4.25;;;;;;;22.59;39.29;102390.34;5069847;28;20048;-80
2022/06/04 08:43:14;;;;;;;8.82;4.38;;;;;;;22.77;39.43;102386.09;5068096;28;20048;-77
2022/06/04 08:45:40;;;;;;;15.38;5.45;;;;;;;23.00;38.93;102382.75;5068685;28;20036;-80
2022/06/04 08:48:18;;;;;;;12.20;4.22;;;;;;;22.89;39.13;102388.81;5070773;28;20033;-78
2022/06/04 08:50:44;;;;;;;10.10;4.18;;;;;;;23.04;38.49;102395.59;5068983;28;20506;-76
2022/06/04 08:53:18;;;;;;;7.32;4.10;;;;;;;23.17;38.34;102397.13;5070134;28;20028;-75
2022/06/04 08:58:37;;;;;;;;;;;;;;;22.72;39.24;102397.50;5070550;28;20082;-80
2022/06/04 09:01:13;;;;;;;15.70;4.47;;;;;;;23.09;38.47;102394.53;5068249;28;20374;-76
2022/06/04 09:03:56;;;;;;;9.23;4.05;;;;;;;22.92;39.60;102387.31;5071057;28;20391;-76
2022/06/04 09:06:41;;;;;;;10.82;4.20;;;;;;;23.03;39.19;102393.97;5068413;28;20055;-76
2022/06/04 09:09:17;;;;;;;12.82;4.68;;;;;;;23.56;38.34;102397.28;5068643;28;20020;-76
2022/06/04 09:12:07;;;;;;;14.10;5.32;;;;;;;23.50;38.68;102401.50;5070968;28;20024;-75
2022/06/04 09:14:38;;;;;;;10.27;4.30;;;;;;;23.44;38.47;102401.00;5070547;28;20095;-83
2022/06/04 09:17:14;;;;;;;11.07;4.50;;;;;;;23.49;37.85;102388.75;5068602;28;20029;-79
2022/06/04 09:19:42;;;;;;;8.75;3.88;;;;;;;23.48;38.29;102387.13;5069649;28;20576;-78
2022/06/04 09:22:21;;;;;;;10.52;4.03;;;;;;;23.47;38.17;102396.69;5070871;28;20082;-78
2022/06/04 09:24:47;;;;;;;11.45;4.43;;;;;;;23.53;38.28;102398.03;5069047;28;20539;-78
2022/06/04 09:27:28;;;;;;;8.80;4.28;;;;;;;23.45;38.12;102399.03;5070741;28;20048;-77
2022/06/04 09:30:16;;;;;;;11.55;3.97;;;;;;;23.48;37.76;102392.72;5070143;28;20601;-78
2022/06/04 09:33:22;;;;;;;8.40;3.35;;;;;;;23.37;37.72;102389.66;5068578;28;20027;-82
2022/06/04 09:35:48;;;;;;;8.30;4.28;;;;;;;23.37;38.32;102389.66;5073623;28;20041;-79
2022/06/04 09:38:30;;;;;;;9.02;4.35;;;;;;;23.39;38.17;102390.09;5074847;28;20097;-78
2022/06/04 09:41:21;;;;;;;5.78;3.83;;;;;;;23.28;38.23;102388.25;5072074;28;20623;-78
2022/06/04 09:43:59;;;;;;;9.88;3.78;;;;;;;23.11;38.11;102384.63;5072274;28;20037;-79
2022/06/04 09:46:25;;;;;;;9.90;4.07;;;;;;;23.20;37.94;102387.22;5070438;28;20039;-79
2022/06/04 09:48:53;;;;;;;11.88;4.10;;;;;;;23.16;38.20;102378.78;5072794;28;20033;-77
2022/06/04 09:51:23;;;;;;;17.52;4.90;;;;;;;23.35;38.11;102385.59;5072675;28;20064;-78
2022/06/04 09:54:03;;;;;;;10.55;4.05;;;;;;;23.40;37.95;102380.56;5073932;28;20078;-76
2022/06/04 09:56:28;;;;;;;7.15;3.70;;;;;;;23.17;38.30;102377.59;5075377;28;20024;-78
2022/06/04 09:58:55;;;;;;;12.82;4.82;;;;;;;23.46;37.77;102381.91;5074554;28;20051;-79
2022/06/04 10:01:23;;;;;;;10.38;3.78;;;;;;;23.40;37.82;102376.97;5071298;28;20020;-80
2022/06/04 10:04:04;;;;;;;9.20;3.75;;;;;;;23.69;37.29;102375.69;5074167;28;20378;-81
2022/06/04 10:06:29;;;;;;;8.20;3.50;;;;;;;23.50;37.37;102373.63;5072499;28;20019;-83
2022/06/04 10:11:56;;;;;;;15.57;4.47;;;;;;;23.39;37.41;102378.16;5072051;28;20035;-80
2022/06/04 10:14:40;;;;;;;16.23;4.65;;;;;;;23.61;37.52;102373.91;5074069;28;20027;-79
2022/06/04 10:17:37;;;;;;;10.60;4.88;;;;;;;23.94;37.27;102367.88;5069371;28;20028;-79
2022/06/04 10:20:04;;;;;;;9.80;3.75;;;;;;;23.82;37.45;102368.84;5054671;28;20021;-79
2022/06/04 10:22:30;;;;;;;10.95;4.47;;;;;;;23.91;37.12;102372.22;5058150;28;20424;-79
2022/06/04 10:24:56;;;;;;;10.75;4.38;;;;;;;23.68;37.21;102377.69;5058536;28;20036;-80
2022/06/04 10:27:38;;;;;;;7.60;4.03;;;;;;;23.59;36.87;102379.84;5058410;28;20032;-79
2022/06/04 10:30:09;;;;;;;11.88;4.40;;;;;;;23.46;37.46;102381.09;5058461;28;20507;-79
2022/06/04 10:33:05;;;;;;;7.70;4.22;;;;;;;23.72;37.29;102384.13;5059422;28;20028;-80
2022/06/04 10:35:40;;;;;;;12.98;4.68;;;;;;;23.43;37.44;102381.84;5069440;28;20029;-81
2022/06/04 10:38:18;;;;;;;13.90;4.57;;;;;;;23.40;37.57;102385.34;5074817;28;20116;-79
2022/06/04 10:40:51;;;;;;;9.50;3.88;;;;;;;23.45;37.92;102379.50;5073432;28;20044;-83
2022/06/04 10:43:36;;;;;;;10.35;5.45;;;;;;;23.67;37.26;102378.88;5074755;28;20032;-79
2022/06/04 10:46:41;;;;;;;9.63;4.78;;;;;;;23.47;37.18;102379.94;5072764;28;20056;-79
2022/06/04 10:49:31;;;;;;;10.45;3.63;;;;;;;23.78;37.50;102360.38;5071453;28;20033;-78
2022/06/04 10:52:21;;;;;;;8.90;3.75;;;;;;;23.93;37.06;102360.69;5069519;28;20068;-78
2022/06/04 10:55:04;;;;;;;9.23;3.95;;;;;;;23.97;37.22;102367.97;5054517;28;20033;-77
2022/06/04 10:57:39;;;;;;;10.80;4.30;;;;;;;24.05;36.92;102360.56;5054551;28;20067;-78
2022/06/04 11:00:22;;;;;;;7.20;3.47;;;;;;;23.73;36.94;102355.09;5054121;28;20074;-77
2022/06/04 11:02:53;;;;;;;8.38;3.65;;;;;;;23.83;36.65;102355.69;5054373;28;20376;-77
2022/06/04 11:05:27;;;;;;;9.63;3.97;;;;;;;24.00;36.42;102355.25;5054218;28;20483;-78
2022/06/04 11:08:06;;;;;;;10.95;3.97;;;;;;;23.83;36.78;102355.69;5068484;28;20597;-82
2022/06/04 11:10:36;;;;;;;10.73;4.45;;;;;;;23.93;37.31;102352.31;5073023;28;20082;-78
2022/06/04 11:13:28;;;;;;;8.25;4.15;;;;;;;23.95;37.03;102349.94;5072182;28;20033;-79
2022/06/04 11:16:09;;;;;;;10.50;4.25;;;;;;;24.06;36.67;102353.81;5074965;28;20060;-79
2022/06/04 11:18:44;;;;;;;10.38;4.10;;;;;;;24.02;36.94;102347.31;5086157;28;20039;-79
2022/06/04 11:21:25;;;;;;;11.13;4.13;;;;;;;23.87;36.79;102342.59;5086529;28;20040;-78
2022/06/04 11:24:00;;;;;;;7.57;4.22;;;;;;;24.32;35.70;102350.31;5078337;28;20359;-77
2022/06/04 11:26:52;;;;;;;5.13;3.53;;;;;;;24.40;35.83;102348.53;5091754;28;20020;-78
2022/06/04 11:29:18;;;;;;;11.73;4.57;;;;;;;24.47;35.76;102365.41;5082801;28;20715;-83
2022/06/04 11:31:50;;;;;;;13.27;4.55;;;;;;;24.43;35.96;102361.75;5072550;28;20027;-81
2022/06/04 11:34:36;;;;;;;7.57;3.45;;;;;;;24.23;35.78;102364.53;5072494;28;20103;-82
2022/06/04 11:37:23;;;;;;;7.63;3.67;;;;;;;24.55;36.25;102362.38;5069444;28;20025;-78
2022/06/04 11:40:05;;;;;;;14.45;4.38;;;;;;;24.34;36.41;102373.97;5069484;28;20558;-82
2022/06/04 11:42:55;;;;;;;13.70;4.20;;;;;;;24.67;36.47;102360.63;5074458;28;20516;-78
2022/06/04 11:45:39;;;;;;;;;;;;;;;24.69;36.41;102367.44;5072473;28;20110;-78
2022/06/04 11:48:26;;;;;;;8.27;4.50;;;;;;;24.52;36.08;102356.75;5073936;28;20365;-81
2022/06/04 11:51:00;;;;;;;12.90;4.82;;;;;;;24.61;35.92;102354.53;5083216;28;20039;-77
2022/06/04 11:53:37;;;;;;;11.70;4.43;;;;;;;24.81;35.46;102358.91;5069323;28;20078;-77